sensor_id;sensor_type;location;lat;lon;timestamp;temperature;humidity
14934;DHT22;7560;51.364;12.384;2023-02-28T00:04:59;2.20;99.90
14934;DHT22;7560;51.364;12.384;2023-02-28T00:10:04;2.10;99.90
14934;DHT22;7560;51.364;12.384;2023-02-28T00:15:07;2.10;99.90
14934;DHT22;7560;51.364;12.384;2023-02-28T00:20:11;2.10;99.90
14934;DHT22;7560;51.364;12.384;2023-02-28T00:25:19;2.10;99.90
14934;DHT22;7560;51.364;12.384;2023-02-28T00:30:23;2.10;99.90
14934;DHT22;7560;51.364;12.384;2023-02-28T00:35:25;2.00;99.90
14934;DHT22;7560;51.364;12.384;2023-02-28T00:40:27;1.90;99.90
14934;DHT22;7560;51.364;12.384;2023-02-28T00:45:28;2.00;99.90
14934;DHT22;7560;51.364;12.384;2023-02-28T00:50:30;1.90;99.90
14934;DHT22;7560;51.364;12.384;2023-02-28T00:55:32;2.00;99.90
14934;DHT22;7560;51.364;12.384;2023-02-28T01:00:34;2.00;99.90
14934;DHT22;7560;51.364;12.384;2023-02-28T01:05:36;2.00;99.90
14934;DHT22;7560;51.364;12.384;2023-02-28T01:10:38;2.00;99.90
14934;DHT22;7560;51.364;12.384;2023-02-28T01:15:50;2.00;99.90
14934;DHT22;7560;51.364;12.384;2023-02-28T01:20:53;2.00;99.90
14934;DHT22;7560;51.364;12.384;2023-02-28T01:25:55;1.90;99.90
14934;DHT22;7560;51.364;12.384;2023-02-28T01:30:57;1.90;99.90
14934;DHT22;7560;51.364;12.384;2023-02-28T01:36:07;1.90;99.90
14934;DHT22;7560;51.364;12.384;2023-02-28T01:41:17;1.80;99.90
14934;DHT22;7560;51.364;12.384;2023-02-28T01:46:19;1.80;99.90
14934;DHT22;7560;51.364;12.384;2023-02-28T01:56:36;1.90;99.90
14934;DHT22;7560;51.364;12.384;2023-02-28T02:01:38;1.90;99.90
14934;DHT22;7560;51.364;12.384;2023-02-28T02:06:45;1.80;99.90
14934;DHT22;7560;51.364;12.384;2023-02-28T02:11:49;1.80;99.90
14934;DHT22;7560;51.364;12.384;2023-02-28T02:33:38;1.70;99.90
14934;DHT22;7560;51.364;12.384;2023-02-28T02:39:18;1.70;99.90
14934;DHT22;7560;51.364;12.384;2023-02-28T02:44:25;1.80;99.90
14934;DHT22;7560;51.364;12.384;2023-02-28T02:49:31;1.50;99.90
14934;DHT22;7560;51.364;12.384;2023-02-28T02:54:37;1.50;99.90
14934;DHT22;7560;51.364;12.384;2023-02-28T02:59:41;1.30;99.90
14934;DHT22;7560;51.364;12.384;2023-02-28T03:04:53;1.10;99.90
14934;DHT22;7560;51.364;12.384;2023-02-28T03:10:02;1.00;99.90
14934;DHT22;7560;51.364;12.384;2023-02-28T03:15:21;0.90;99.90
14934;DHT22;7560;51.364;12.384;2023-02-28T03:30:56;0.70;99.90
14934;DHT22;7560;51.364;12.384;2023-02-28T03:41:32;0.70;99.90
14934;DHT22;7560;51.364;12.384;2023-02-28T03:46:42;0.50;99.90
14934;DHT22;7560;51.364;12.384;2023-02-28T03:51:47;0.50;99.90
14934;DHT22;7560;51.364;12.384;2023-02-28T03:57:02;0.50;99.90
14934;DHT22;7560;51.364;12.384;2023-02-28T04:02:04;0.50;99.90
14934;DHT22;7560;51.364;12.384;2023-02-28T04:07:08;0.70;99.90
14934;DHT22;7560;51.364;12.384;2023-02-28T04:12:10;0.90;99.90
14934;DHT22;7560;51.364;12.384;2023-02-28T04:17:12;0.90;99.90
14934;DHT22;7560;51.364;12.384;2023-02-28T04:22:14;1.00;99.90
14934;DHT22;7560;51.364;12.384;2023-02-28T04:27:16;1.00;99.90
14934;DHT22;7560;51.364;12.384;2023-02-28T04:32:18;1.20;99.90
14934;DHT22;7560;51.364;12.384;2023-02-28T04:37:20;1.10;99.90
14934;DHT22;7560;51.364;12.384;2023-02-28T04:42:22;1.20;99.90
14934;DHT22;7560;51.364;12.384;2023-02-28T04:47:24;1.10;99.90
14934;DHT22;7560;51.364;12.384;2023-02-28T04:52:27;0.90;99.90
14934;DHT22;7560;51.364;12.384;2023-02-28T04:57:29;0.90;99.90
14934;DHT22;7560;51.364;12.384;2023-02-28T05:02:34;0.70;99.90
14934;DHT22;7560;51.364;12.384;2023-02-28T05:07:36;0.70;99.90
14934;DHT22;7560;51.364;12.384;2023-02-28T05:12:38;0.90;99.90
14934;DHT22;7560;51.364;12.384;2023-02-28T05:17:40;0.80;99.90
14934;DHT22;7560;51.364;12.384;2023-02-28T05:22:43;0.80;99.90
14934;DHT22;7560;51.364;12.384;2023-02-28T05:27:45;0.70;99.90
14934;DHT22;7560;51.364;12.384;2023-02-28T05:32:50;0.70;99.90
14934;DHT22;7560;51.364;12.384;2023-02-28T05:37:52;0.60;99.90
14934;DHT22;7560;51.364;12.384;2023-02-28T05:42:54;0.50;99.90
14934;DHT22;7560;51.364;12.384;2023-02-28T05:47:56;0.50;99.90
14934;DHT22;7560;51.364;12.384;2023-02-28T05:52:58;0.30;99.90
14934;DHT22;7560;51.364;12.384;2023-02-28T05:58:00;0.40;99.90
14934;DHT22;7560;51.364;12.384;2023-02-28T06:03:02;0.40;99.90
14934;DHT22;7560;51.364;12.384;2023-02-28T06:08:05;0.40;99.90
14934;DHT22;7560;51.364;12.384;2023-02-28T06:13:08;0.40;99.90
14934;DHT22;7560;51.364;12.384;2023-02-28T06:18:10;0.30;99.90
14934;DHT22;7560;51.364;12.384;2023-02-28T06:23:12;0.30;99.90
14934;DHT22;7560;51.364;12.384;2023-02-28T06:28:14;0.30;99.90
14934;DHT22;7560;51.364;12.384;2023-02-28T06:33:16;0.30;99.90
14934;DHT22;7560;51.364;12.384;2023-02-28T06:38:18;0.30;99.90
14934;DHT22;7560;51.364;12.384;2023-02-28T06:43:20;0.40;99.90
14934;DHT22;7560;51.364;12.384;2023-02-28T06:48:22;0.40;99.90
14934;DHT22;7560;51.364;12.384;2023-02-28T06:53:24;0.40;99.90
14934;DHT22;7560;51.364;12.384;2023-02-28T06:58:26;0.40;99.90
14934;DHT22;7560;51.364;12.384;2023-02-28T07:03:27;0.50;99.90
14934;DHT22;7560;51.364;12.384;2023-02-28T07:08:29;0.50;99.90
14934;DHT22;7560;51.364;12.384;2023-02-28T07:13:33;0.60;99.90
14934;DHT22;7560;51.364;12.384;2023-02-28T07:18:37;0.70;99.90
14934;DHT22;7560;51.364;12.384;2023-02-28T07:23:39;0.80;99.90
14934;DHT22;7560;51.364;12.384;2023-02-28T07:28:46;0.80;99.90
14934;DHT22;7560;51.364;12.384;2023-02-28T07:33:49;0.90;99.90
14934;DHT22;7560;51.364;12.384;2023-02-28T07:38:50;1.00;99.90
14934;DHT22;7560;51.364;12.384;2023-02-28T07:43:54;1.10;99.90
14934;DHT22;7560;51.364;12.384;2023-02-28T07:48:57;1.30;99.90
14934;DHT22;7560;51.364;12.384;2023-02-28T07:54:01;1.40;99.90
14934;DHT22;7560;51.364;12.384;2023-02-28T07:59:03;1.50;99.90
14934;DHT22;7560;51.364;12.384;2023-02-28T08:04:05;1.70;99.90
14934;DHT22;7560;51.364;12.384;2023-02-28T08:09:06;1.60;99.90
14934;DHT22;7560;51.364;12.384;2023-02-28T08:14:08;1.70;99.90
14934;DHT22;7560;51.364;12.384;2023-02-28T08:19:10;1.70;99.90
14934;DHT22;7560;51.364;12.384;2023-02-28T08:24:12;1.80;99.90
14934;DHT22;7560;51.364;12.384;2023-02-28T08:29:13;1.90;99.90
14934;DHT22;7560;51.364;12.384;2023-02-28T08:34:16;2.00;99.90
14934;DHT22;7560;51.364;12.384;2023-02-28T08:39:18;2.20;99.90
14934;DHT22;7560;51.364;12.384;2023-02-28T08:44:21;2.30;99.90
14934;DHT22;7560;51.364;12.384;2023-02-28T08:49:23;2.30;99.90
14934;DHT22;7560;51.364;12.384;2023-02-28T08:54:25;2.30;99.90
14934;DHT22;7560;51.364;12.384;2023-02-28T08:59:28;2.50;99.90
14934;DHT22;7560;51.364;12.384;2023-02-28T09:04:30;2.60;99.90
14934;DHT22;7560;51.364;12.384;2023-02-28T09:09:32;2.80;99.90
14934;DHT22;7560;51.364;12.384;2023-02-28T09:14:34;2.70;99.90
14934;DHT22;7560;51.364;12.384;2023-02-28T09:19:36;2.80;99.90
14934;DHT22;7560;51.364;12.384;2023-02-28T09:24:38;2.80;99.90
14934;DHT22;7560;51.364;12.384;2023-02-28T09:29:41;3.10;99.90
14934;DHT22;7560;51.364;12.384;2023-02-28T09:34:43;3.20;99.90
14934;DHT22;7560;51.364;12.384;2023-02-28T09:39:45;3.40;99.90
14934;DHT22;7560;51.364;12.384;2023-02-28T09:44:47;3.30;99.90
14934;DHT22;7560;51.364;12.384;2023-02-28T09:49:50;3.50;99.90
14934;DHT22;7560;51.364;12.384;2023-02-28T09:54:52;3.50;99.90
14934;DHT22;7560;51.364;12.384;2023-02-28T10:00:18;3.60;99.90
14934;DHT22;7560;51.364;12.384;2023-02-28T10:05:41;3.60;99.90
14934;DHT22;7560;51.364;12.384;2023-02-28T10:10:48;3.70;99.90
14934;DHT22;7560;51.364;12.384;2023-02-28T10:15:57;3.80;99.90
14934;DHT22;7560;51.364;12.384;2023-02-28T10:21:00;3.60;99.90
14934;DHT22;7560;51.364;12.384;2023-02-28T10:26:13;3.70;99.90
14934;DHT22;7560;51.364;12.384;2023-02-28T10:31:19;3.80;99.90
14934;DHT22;7560;51.364;12.384;2023-02-28T10:36:21;3.70;99.90
14934;DHT22;7560;51.364;12.384;2023-02-28T10:41:29;3.70;99.90
14934;DHT22;7560;51.364;12.384;2023-02-28T10:46:33;3.70;99.90
14934;DHT22;7560;51.364;12.384;2023-02-28T10:51:38;3.50;99.90
14934;DHT22;7560;51.364;12.384;2023-02-28T10:56:40;3.40;99.90
14934;DHT22;7560;51.364;12.384;2023-02-28T11:01:44;3.60;99.90
14934;DHT22;7560;51.364;12.384;2023-02-28T11:06:47;3.90;99.90
14934;DHT22;7560;51.364;12.384;2023-02-28T11:11:50;4.00;99.90
14934;DHT22;7560;51.364;12.384;2023-02-28T11:17:12;4.00;99.90
14934;DHT22;7560;51.364;12.384;2023-02-28T11:22:24;4.10;99.90
14934;DHT22;7560;51.364;12.384;2023-02-28T11:32:32;4.10;99.90
14934;DHT22;7560;51.364;12.384;2023-02-28T11:37:34;4.00;99.90
14934;DHT22;7560;51.364;12.384;2023-02-28T12:04:34;4.20;99.90
14934;DHT22;7560;51.364;12.384;2023-02-28T12:25:40;4.60;99.90
14934;DHT22;7560;51.364;12.384;2023-02-28T12:30:58;4.60;99.90
14934;DHT22;7560;51.364;12.384;2023-02-28T12:36:09;4.60;99.90
14934;DHT22;7560;51.364;12.384;2023-02-28T12:46:37;4.60;99.90
14934;DHT22;7560;51.364;12.384;2023-02-28T12:51:40;4.70;99.90
14934;DHT22;7560;51.364;12.384;2023-02-28T13:12:47;4.90;99.90
14934;DHT22;7560;51.364;12.384;2023-02-28T13:17:56;4.90;99.90
14934;DHT22;7560;51.364;12.384;2023-02-28T13:22:58;4.90;99.90
14934;DHT22;7560;51.364;12.384;2023-02-28T13:28:01;5.00;99.90
14934;DHT22;7560;51.364;12.384;2023-02-28T13:33:25;5.10;99.90
14934;DHT22;7560;51.364;12.384;2023-02-28T13:38:37;5.10;99.90
14934;DHT22;7560;51.364;12.384;2023-02-28T14:05:02;5.50;99.90
14934;DHT22;7560;51.364;12.384;2023-02-28T14:10:07;5.40;99.90
14934;DHT22;7560;51.364;12.384;2023-02-28T14:21:20;5.80;99.90
14934;DHT22;7560;51.364;12.384;2023-02-28T14:37:20;5.70;99.90
14934;DHT22;7560;51.364;12.384;2023-02-28T14:42:34;5.90;99.90
14934;DHT22;7560;51.364;12.384;2023-02-28T14:47:36;5.80;99.90
14934;DHT22;7560;51.364;12.384;2023-02-28T14:52:38;5.90;99.90
14934;DHT22;7560;51.364;12.384;2023-02-28T14:57:50;5.90;99.90
14934;DHT22;7560;51.364;12.384;2023-02-28T15:02:53;6.10;99.90
14934;DHT22;7560;51.364;12.384;2023-02-28T15:08:15;5.90;99.90
14934;DHT22;7560;51.364;12.384;2023-02-28T15:13:17;5.80;99.90
14934;DHT22;7560;51.364;12.384;2023-02-28T15:24:12;6.20;99.90
14934;DHT22;7560;51.364;12.384;2023-02-28T15:29:19;6.30;99.90
14934;DHT22;7560;51.364;12.384;2023-02-28T15:39:43;6.10;99.90
14934;DHT22;7560;51.364;12.384;2023-02-28T15:44:46;6.10;99.90
14934;DHT22;7560;51.364;12.384;2023-02-28T15:50:09;6.10;99.90
14934;DHT22;7560;51.364;12.384;2023-02-28T16:00:18;5.70;99.90
14934;DHT22;7560;51.364;12.384;2023-02-28T16:05:27;5.60;99.90
14934;DHT22;7560;51.364;12.384;2023-02-28T16:10:33;5.40;99.90
14934;DHT22;7560;51.364;12.384;2023-02-28T16:15:38;5.30;99.90
14934;DHT22;7560;51.364;12.384;2023-02-28T16:20:45;5.10;99.90
14934;DHT22;7560;51.364;12.384;2023-02-28T16:25:46;5.00;99.90
14934;DHT22;7560;51.364;12.384;2023-02-28T16:30:51;4.90;99.90
14934;DHT22;7560;51.364;12.384;2023-02-28T16:35:53;4.80;99.90
14934;DHT22;7560;51.364;12.384;2023-02-28T16:40:56;4.60;99.90
14934;DHT22;7560;51.364;12.384;2023-02-28T16:46:03;4.50;99.90
14934;DHT22;7560;51.364;12.384;2023-02-28T16:51:05;4.40;99.90
14934;DHT22;7560;51.364;12.384;2023-02-28T16:56:21;4.30;99.90
14934;DHT22;7560;51.364;12.384;2023-02-28T17:01:23;4.20;99.90
14934;DHT22;7560;51.364;12.384;2023-02-28T17:06:27;4.20;99.90
14934;DHT22;7560;51.364;12.384;2023-02-28T17:11:30;4.00;99.90
14934;DHT22;7560;51.364;12.384;2023-02-28T17:16:33;3.90;99.90
14934;DHT22;7560;51.364;12.384;2023-02-28T17:21:37;3.80;99.90
14934;DHT22;7560;51.364;12.384;2023-02-28T17:26:40;3.70;99.90
14934;DHT22;7560;51.364;12.384;2023-02-28T17:31:42;3.80;99.90
14934;DHT22;7560;51.364;12.384;2023-02-28T17:36:48;3.60;99.90
14934;DHT22;7560;51.364;12.384;2023-02-28T17:41:54;3.50;99.90
14934;DHT22;7560;51.364;12.384;2023-02-28T17:46:56;3.40;99.90
14934;DHT22;7560;51.364;12.384;2023-02-28T17:51:58;3.30;99.90
14934;DHT22;7560;51.364;12.384;2023-02-28T17:57:00;3.10;99.90
14934;DHT22;7560;51.364;12.384;2023-02-28T18:02:02;3.10;99.90
14934;DHT22;7560;51.364;12.384;2023-02-28T18:07:11;3.00;99.90
14934;DHT22;7560;51.364;12.384;2023-02-28T18:12:13;2.90;99.90
14934;DHT22;7560;51.364;12.384;2023-02-28T18:17:14;2.80;99.90
14934;DHT22;7560;51.364;12.384;2023-02-28T18:22:17;2.70;99.90
14934;DHT22;7560;51.364;12.384;2023-02-28T18:27:18;2.60;99.90
14934;DHT22;7560;51.364;12.384;2023-02-28T18:32:20;2.50;99.90
14934;DHT22;7560;51.364;12.384;2023-02-28T18:37:22;2.50;99.90
14934;DHT22;7560;51.364;12.384;2023-02-28T18:42:24;2.40;99.90
14934;DHT22;7560;51.364;12.384;2023-02-28T18:47:26;2.40;99.90
14934;DHT22;7560;51.364;12.384;2023-02-28T18:52:27;2.30;99.90
14934;DHT22;7560;51.364;12.384;2023-02-28T18:57:29;2.30;99.90
14934;DHT22;7560;51.364;12.384;2023-02-28T19:02:31;2.20;99.90
14934;DHT22;7560;51.364;12.384;2023-02-28T19:07:34;2.10;99.90
14934;DHT22;7560;51.364;12.384;2023-02-28T19:12:37;2.10;99.90
14934;DHT22;7560;51.364;12.384;2023-02-28T19:17:39;2.00;99.90
14934;DHT22;7560;51.364;12.384;2023-02-28T19:22:41;1.90;99.90
14934;DHT22;7560;51.364;12.384;2023-02-28T19:27:43;1.80;99.90
14934;DHT22;7560;51.364;12.384;2023-02-28T19:32:47;1.60;99.90
14934;DHT22;7560;51.364;12.384;2023-02-28T19:37:49;1.60;99.90
14934;DHT22;7560;51.364;12.384;2023-02-28T19:42:53;1.70;99.90
14934;DHT22;7560;51.364;12.384;2023-02-28T19:47:55;1.50;99.90
14934;DHT22;7560;51.364;12.384;2023-02-28T19:52:57;1.50;99.90
14934;DHT22;7560;51.364;12.384;2023-02-28T19:58:01;1.50;99.90
14934;DHT22;7560;51.364;12.384;2023-02-28T20:03:03;1.40;99.90
14934;DHT22;7560;51.364;12.384;2023-02-28T20:08:05;1.30;99.90
14934;DHT22;7560;51.364;12.384;2023-02-28T20:13:08;1.30;99.90
14934;DHT22;7560;51.364;12.384;2023-02-28T20:18:10;1.30;99.90
14934;DHT22;7560;51.364;12.384;2023-02-28T20:23:12;1.30;99.90
14934;DHT22;7560;51.364;12.384;2023-02-28T20:28:14;1.10;99.90
14934;DHT22;7560;51.364;12.384;2023-02-28T20:33:17;1.00;99.90
14934;DHT22;7560;51.364;12.384;2023-02-28T20:38:19;1.10;99.90
14934;DHT22;7560;51.364;12.384;2023-02-28T20:43:21;0.90;99.90
14934;DHT22;7560;51.364;12.384;2023-02-28T20:48:24;0.90;99.90
14934;DHT22;7560;51.364;12.384;2023-02-28T20:53:27;0.90;99.90
14934;DHT22;7560;51.364;12.384;2023-02-28T20:58:31;0.90;99.90
14934;DHT22;7560;51.364;12.384;2023-02-28T21:03:35;0.70;99.90
14934;DHT22;7560;51.364;12.384;2023-02-28T21:08:37;0.70;99.90
14934;DHT22;7560;51.364;12.384;2023-02-28T21:13:41;0.60;99.90
14934;DHT22;7560;51.364;12.384;2023-02-28T21:18:43;0.60;99.90
14934;DHT22;7560;51.364;12.384;2023-02-28T21:23:45;0.60;99.90
14934;DHT22;7560;51.364;12.384;2023-02-28T21:28:52;0.60;99.90
14934;DHT22;7560;51.364;12.384;2023-02-28T21:33:57;0.40;99.90
14934;DHT22;7560;51.364;12.384;2023-02-28T21:44:14;0.40;99.90
14934;DHT22;7560;51.364;12.384;2023-02-28T21:49:19;0.30;99.90
14934;DHT22;7560;51.364;12.384;2023-02-28T21:54:21;0.30;99.90
14934;DHT22;7560;51.364;12.384;2023-02-28T21:59:23;0.20;99.90
14934;DHT22;7560;51.364;12.384;2023-02-28T22:04:25;0.20;99.90
14934;DHT22;7560;51.364;12.384;2023-02-28T22:09:27;0.10;99.90
14934;DHT22;7560;51.364;12.384;2023-02-28T22:14:29;0.10;99.90
14934;DHT22;7560;51.364;12.384;2023-02-28T22:19:31;0.00;99.90
14934;DHT22;7560;51.364;12.384;2023-02-28T22:24:33;0.00;99.90
14934;DHT22;7560;51.364;12.384;2023-02-28T22:29:35;-0.10;99.90
14934;DHT22;7560;51.364;12.384;2023-02-28T22:34:37;-0.10;99.90
14934;DHT22;7560;51.364;12.384;2023-02-28T22:39:39;-0.20;99.90
14934;DHT22;7560;51.364;12.384;2023-02-28T22:44:41;-0.20;99.90
14934;DHT22;7560;51.364;12.384;2023-02-28T22:49:43;-0.20;99.90
14934;DHT22;7560;51.364;12.384;2023-02-28T22:54:48;-0.30;99.90
14934;DHT22;7560;51.364;12.384;2023-02-28T22:59:50;-0.30;99.90
14934;DHT22;7560;51.364;12.384;2023-02-28T23:04:54;-0.40;99.90
14934;DHT22;7560;51.364;12.384;2023-02-28T23:09:55;-0.50;99.90
14934;DHT22;7560;51.364;12.384;2023-02-28T23:14:57;-0.50;99.90
14934;DHT22;7560;51.364;12.384;2023-02-28T23:19:59;-0.50;99.90
14934;DHT22;7560;51.364;12.384;2023-02-28T23:25:01;-0.60;99.90
14934;DHT22;7560;51.364;12.384;2023-02-28T23:30:04;-0.70;99.90
14934;DHT22;7560;51.364;12.384;2023-02-28T23:35:07;-0.70;99.90
14934;DHT22;7560;51.364;12.384;2023-02-28T23:40:09;-0.70;99.90
14934;DHT22;7560;51.364;12.384;2023-02-28T23:45:12;-0.70;99.90
14934;DHT22;7560;51.364;12.384;2023-02-28T23:50:14;-0.60;99.90
14934;DHT22;7560;51.364;12.384;2023-02-28T23:55:16;-0.70;99.90
